sensor_id;sensor_type;location;lat;lon;timestamp;P1;durP1;ratioP1;P2;durP2;ratioP2
5125;SDS011;63008;53.112;8.896;2023-05-10T00:00:48;9.90;;;2.00;;
5125;SDS011;63008;53.112;8.896;2023-05-10T00:02:49;5.40;;;2.60;;
5125;SDS011;63008;53.112;8.896;2023-05-10T00:04:50;3.03;;;2.20;;
5125;SDS011;63008;53.112;8.896;2023-05-10T00:06:51;8.10;;;2.20;;
5125;SDS011;63008;53.112;8.896;2023-05-10T00:08:53;2.93;;;2.27;;
5125;SDS011;63008;53.112;8.896;2023-05-10T00:10:54;7.90;;;2.00;;
5125;SDS011;63008;53.112;8.896;2023-05-10T00:12:55;1.70;;;1.60;;
5125;SDS011;63008;53.112;8.896;2023-05-10T00:14:57;3.13;;;2.10;;
5125;SDS011;63008;53.112;8.896;2023-05-10T00:16:58;10.57;;;2.00;;
5125;SDS011;63008;53.112;8.896;2023-05-10T00:18:59;2.00;;;1.80;;
5125;SDS011;63008;53.112;8.896;2023-05-10T00:21:00;2.60;;;2.00;;
5125;SDS011;63008;53.112;8.896;2023-05-10T00:23:01;2.87;;;2.23;;
5125;SDS011;63008;53.112;8.896;2023-05-10T00:25:02;6.80;;;2.80;;
5125;SDS011;63008;53.112;8.896;2023-05-10T00:27:03;7.30;;;2.00;;
5125;SDS011;63008;53.112;8.896;2023-05-10T00:29:04;4.30;;;2.10;;
5125;SDS011;63008;53.112;8.896;2023-05-10T00:31:05;2.23;;;1.70;;
5125;SDS011;63008;53.112;8.896;2023-05-10T00:33:06;2.20;;;2.00;;
5125;SDS011;63008;53.112;8.896;2023-05-10T00:35:07;1.83;;;1.70;;
5125;SDS011;63008;53.112;8.896;2023-05-10T00:37:08;2.50;;;2.30;;
5125;SDS011;63008;53.112;8.896;2023-05-10T00:39:09;3.37;;;1.90;;
5125;SDS011;63008;53.112;8.896;2023-05-10T00:41:10;2.17;;;2.03;;
5125;SDS011;63008;53.112;8.896;2023-05-10T00:43:11;3.17;;;1.87;;
5125;SDS011;63008;53.112;8.896;2023-05-10T00:45:12;4.07;;;2.03;;
5125;SDS011;63008;53.112;8.896;2023-05-10T00:47:13;4.30;;;2.27;;
5125;SDS011;63008;53.112;8.896;2023-05-10T00:49:14;7.13;;;2.20;;
5125;SDS011;63008;53.112;8.896;2023-05-10T00:51:16;2.30;;;1.73;;
5125;SDS011;63008;53.112;8.896;2023-05-10T00:53:17;3.83;;;1.83;;
5125;SDS011;63008;53.112;8.896;2023-05-10T00:55:19;4.80;;;2.43;;
5125;SDS011;63008;53.112;8.896;2023-05-10T00:57:21;3.83;;;1.83;;
5125;SDS011;63008;53.112;8.896;2023-05-10T00:59:22;3.17;;;2.00;;
5125;SDS011;63008;53.112;8.896;2023-05-10T01:01:24;2.43;;;1.60;;
5125;SDS011;63008;53.112;8.896;2023-05-10T01:03:25;3.33;;;2.53;;
5125;SDS011;63008;53.112;8.896;2023-05-10T01:05:26;1.80;;;1.70;;
5125;SDS011;63008;53.112;8.896;2023-05-10T01:07:28;2.00;;;1.80;;
5125;SDS011;63008;53.112;8.896;2023-05-10T01:09:29;2.90;;;2.53;;
5125;SDS011;63008;53.112;8.896;2023-05-10T01:11:30;2.00;;;1.90;;
5125;SDS011;63008;53.112;8.896;2023-05-10T01:13:32;5.57;;;2.10;;
5125;SDS011;63008;53.112;8.896;2023-05-10T01:15:35;9.33;;;2.33;;
5125;SDS011;63008;53.112;8.896;2023-05-10T01:17:37;8.20;;;2.17;;
5125;SDS011;63008;53.112;8.896;2023-05-10T01:19:40;4.40;;;1.80;;
5125;SDS011;63008;53.112;8.896;2023-05-10T01:26:39;2.47;;;2.37;;
5125;SDS011;63008;53.112;8.896;2023-05-10T01:32:05;6.07;;;2.57;;
5125;SDS011;63008;53.112;8.896;2023-05-10T01:34:20;3.03;;;2.20;;
5125;SDS011;63008;53.112;8.896;2023-05-10T01:38:52;2.77;;;2.57;;
5125;SDS011;63008;53.112;8.896;2023-05-10T01:41:14;2.13;;;1.90;;
5125;SDS011;63008;53.112;8.896;2023-05-10T01:43:22;3.60;;;2.40;;
5125;SDS011;63008;53.112;8.896;2023-05-10T01:45:32;2.50;;;1.90;;
5125;SDS011;63008;53.112;8.896;2023-05-10T01:47:37;2.87;;;1.63;;
5125;SDS011;63008;53.112;8.896;2023-05-10T01:49:41;5.43;;;2.27;;
5125;SDS011;63008;53.112;8.896;2023-05-10T01:51:49;1.93;;;1.83;;
5125;SDS011;63008;53.112;8.896;2023-05-10T01:53:57;3.20;;;2.20;;
5125;SDS011;63008;53.112;8.896;2023-05-10T01:56:01;2.50;;;2.10;;
5125;SDS011;63008;53.112;8.896;2023-05-10T01:58:08;7.40;;;2.20;;
5125;SDS011;63008;53.112;8.896;2023-05-10T02:00:10;10.07;;;2.37;;
5125;SDS011;63008;53.112;8.896;2023-05-10T02:02:14;9.00;;;2.47;;
5125;SDS011;63008;53.112;8.896;2023-05-10T02:04:16;2.20;;;2.00;;
5125;SDS011;63008;53.112;8.896;2023-05-10T02:06:19;5.37;;;2.37;;
5125;SDS011;63008;53.112;8.896;2023-05-10T02:08:22;3.33;;;2.20;;
5125;SDS011;63008;53.112;8.896;2023-05-10T02:10:24;3.10;;;2.10;;
5125;SDS011;63008;53.112;8.896;2023-05-10T02:12:26;2.27;;;1.80;;
5125;SDS011;63008;53.112;8.896;2023-05-10T02:14:32;3.27;;;2.43;;
5125;SDS011;63008;53.112;8.896;2023-05-10T02:16:35;4.73;;;3.30;;
5125;SDS011;63008;53.112;8.896;2023-05-10T02:18:38;5.73;;;2.13;;
5125;SDS011;63008;53.112;8.896;2023-05-10T02:20:41;4.50;;;2.60;;
5125;SDS011;63008;53.112;8.896;2023-05-10T02:22:46;4.53;;;2.20;;
5125;SDS011;63008;53.112;8.896;2023-05-10T02:24:49;2.87;;;2.37;;
5125;SDS011;63008;53.112;8.896;2023-05-10T02:26:51;2.10;;;2.00;;
5125;SDS011;63008;53.112;8.896;2023-05-10T02:28:56;4.30;;;2.10;;
5125;SDS011;63008;53.112;8.896;2023-05-10T02:30:58;6.13;;;2.83;;
5125;SDS011;63008;53.112;8.896;2023-05-10T02:33:01;1.77;;;1.67;;
5125;SDS011;63008;53.112;8.896;2023-05-10T02:35:05;2.80;;;2.20;;
5125;SDS011;63008;53.112;8.896;2023-05-10T02:37:07;5.50;;;2.50;;
5125;SDS011;63008;53.112;8.896;2023-05-10T02:39:09;4.03;;;2.10;;
5125;SDS011;63008;53.112;8.896;2023-05-10T02:41:13;3.07;;;1.80;;
5125;SDS011;63008;53.112;8.896;2023-05-10T02:43:15;3.90;;;2.80;;
5125;SDS011;63008;53.112;8.896;2023-05-10T02:45:18;2.90;;;2.27;;
5125;SDS011;63008;53.112;8.896;2023-05-10T02:47:23;2.40;;;2.20;;
5125;SDS011;63008;53.112;8.896;2023-05-10T02:49:24;5.00;;;2.50;;
5125;SDS011;63008;53.112;8.896;2023-05-10T02:51:25;2.80;;;2.60;;
5125;SDS011;63008;53.112;8.896;2023-05-10T02:53:33;2.87;;;2.67;;
5125;SDS011;63008;53.112;8.896;2023-05-10T02:55:37;6.07;;;2.80;;
5125;SDS011;63008;53.112;8.896;2023-05-10T02:57:41;6.97;;;2.57;;
5125;SDS011;63008;53.112;8.896;2023-05-10T02:59:47;4.90;;;2.00;;
5125;SDS011;63008;53.112;8.896;2023-05-10T03:01:48;2.93;;;2.30;;
5125;SDS011;63008;53.112;8.896;2023-05-10T03:03:48;10.43;;;3.10;;
5125;SDS011;63008;53.112;8.896;2023-05-10T03:05:49;6.00;;;2.37;;
5125;SDS011;63008;53.112;8.896;2023-05-10T03:07:50;3.50;;;2.80;;
5125;SDS011;63008;53.112;8.896;2023-05-10T03:09:53;3.30;;;2.30;;
5125;SDS011;63008;53.112;8.896;2023-05-10T03:17:06;5.43;;;2.63;;
5125;SDS011;63008;53.112;8.896;2023-05-10T03:19:12;5.93;;;2.80;;
5125;SDS011;63008;53.112;8.896;2023-05-10T03:21:20;2.90;;;2.70;;
5125;SDS011;63008;53.112;8.896;2023-05-10T03:23:30;3.80;;;2.87;;
5125;SDS011;63008;53.112;8.896;2023-05-10T03:25:35;2.77;;;2.57;;
5125;SDS011;63008;53.112;8.896;2023-05-10T03:27:41;4.47;;;3.00;;
5125;SDS011;63008;53.112;8.896;2023-05-10T03:29:44;3.73;;;2.73;;
5125;SDS011;63008;53.112;8.896;2023-05-10T03:31:46;4.93;;;2.60;;
5125;SDS011;63008;53.112;8.896;2023-05-10T03:33:48;2.50;;;2.40;;
5125;SDS011;63008;53.112;8.896;2023-05-10T03:35:50;2.93;;;2.60;;
5125;SDS011;63008;53.112;8.896;2023-05-10T03:37:51;3.20;;;2.60;;
5125;SDS011;63008;53.112;8.896;2023-05-10T03:39:51;4.20;;;2.80;;
5125;SDS011;63008;53.112;8.896;2023-05-10T03:41:52;5.17;;;2.67;;
5125;SDS011;63008;53.112;8.896;2023-05-10T03:43:53;5.50;;;2.60;;
5125;SDS011;63008;53.112;8.896;2023-05-10T03:45:54;5.57;;;2.60;;
5125;SDS011;63008;53.112;8.896;2023-05-10T03:47:56;3.00;;;2.80;;
5125;SDS011;63008;53.112;8.896;2023-05-10T03:49:57;4.00;;;2.50;;
5125;SDS011;63008;53.112;8.896;2023-05-10T03:51:58;3.13;;;2.83;;
5125;SDS011;63008;53.112;8.896;2023-05-10T03:53:59;5.07;;;3.30;;
5125;SDS011;63008;53.112;8.896;2023-05-10T03:56:03;4.67;;;2.87;;
5125;SDS011;63008;53.112;8.896;2023-05-10T03:58:04;4.43;;;3.03;;
5125;SDS011;63008;53.112;8.896;2023-05-10T04:00:07;3.33;;;2.80;;
5125;SDS011;63008;53.112;8.896;2023-05-10T04:02:09;5.60;;;3.00;;
5125;SDS011;63008;53.112;8.896;2023-05-10T04:04:10;7.70;;;3.17;;
5125;SDS011;63008;53.112;8.896;2023-05-10T04:06:11;2.80;;;2.70;;
5125;SDS011;63008;53.112;8.896;2023-05-10T04:08:12;4.20;;;3.07;;
5125;SDS011;63008;53.112;8.896;2023-05-10T04:10:13;3.17;;;2.90;;
5125;SDS011;63008;53.112;8.896;2023-05-10T04:12:14;3.77;;;2.60;;
5125;SDS011;63008;53.112;8.896;2023-05-10T04:14:15;4.57;;;3.27;;
5125;SDS011;63008;53.112;8.896;2023-05-10T04:16:17;4.30;;;3.40;;
5125;SDS011;63008;53.112;8.896;2023-05-10T04:18:18;7.33;;;3.07;;
5125;SDS011;63008;53.112;8.896;2023-05-10T04:20:19;7.40;;;2.93;;
5125;SDS011;63008;53.112;8.896;2023-05-10T04:22:20;6.90;;;3.40;;
5125;SDS011;63008;53.112;8.896;2023-05-10T04:24:21;3.20;;;2.97;;
5125;SDS011;63008;53.112;8.896;2023-05-10T04:26:22;2.73;;;2.53;;
5125;SDS011;63008;53.112;8.896;2023-05-10T04:28:23;10.40;;;3.60;;
5125;SDS011;63008;53.112;8.896;2023-05-10T04:30:26;3.93;;;3.50;;
5125;SDS011;63008;53.112;8.896;2023-05-10T04:32:29;5.67;;;3.40;;
5125;SDS011;63008;53.112;8.896;2023-05-10T04:34:30;4.30;;;3.20;;
5125;SDS011;63008;53.112;8.896;2023-05-10T04:36:31;4.50;;;3.57;;
5125;SDS011;63008;53.112;8.896;2023-05-10T04:38:37;3.60;;;3.30;;
5125;SDS011;63008;53.112;8.896;2023-05-10T04:40:38;5.97;;;3.70;;
5125;SDS011;63008;53.112;8.896;2023-05-10T04:42:42;4.00;;;3.60;;
5125;SDS011;63008;53.112;8.896;2023-05-10T04:44:44;5.07;;;3.50;;
5125;SDS011;63008;53.112;8.896;2023-05-10T04:46:45;5.10;;;3.60;;
5125;SDS011;63008;53.112;8.896;2023-05-10T04:48:46;6.20;;;4.37;;
5125;SDS011;63008;53.112;8.896;2023-05-10T04:50:47;3.80;;;3.50;;
5125;SDS011;63008;53.112;8.896;2023-05-10T04:52:48;4.67;;;3.90;;
5125;SDS011;63008;53.112;8.896;2023-05-10T04:54:49;4.03;;;3.57;;
5125;SDS011;63008;53.112;8.896;2023-05-10T04:56:50;4.60;;;4.30;;
5125;SDS011;63008;53.112;8.896;2023-05-10T04:58:51;5.77;;;4.23;;
5125;SDS011;63008;53.112;8.896;2023-05-10T05:00:52;5.57;;;4.17;;
5125;SDS011;63008;53.112;8.896;2023-05-10T05:02:53;9.13;;;4.67;;
5125;SDS011;63008;53.112;8.896;2023-05-10T05:04:55;5.13;;;4.63;;
5125;SDS011;63008;53.112;8.896;2023-05-10T05:06:56;12.40;;;4.93;;
5125;SDS011;63008;53.112;8.896;2023-05-10T05:08:57;8.33;;;5.30;;
5125;SDS011;63008;53.112;8.896;2023-05-10T05:10:58;6.10;;;4.93;;
5125;SDS011;63008;53.112;8.896;2023-05-10T05:12:59;11.83;;;5.33;;
5125;SDS011;63008;53.112;8.896;2023-05-10T05:15:01;7.00;;;5.27;;
5125;SDS011;63008;53.112;8.896;2023-05-10T05:17:03;6.50;;;6.00;;
5125;SDS011;63008;53.112;8.896;2023-05-10T05:19:04;7.93;;;5.60;;
5125;SDS011;63008;53.112;8.896;2023-05-10T05:21:15;6.97;;;6.40;;
5125;SDS011;63008;53.112;8.896;2023-05-10T05:23:16;6.27;;;5.77;;
5125;SDS011;63008;53.112;8.896;2023-05-10T05:25:18;6.60;;;5.27;;
5125;SDS011;63008;53.112;8.896;2023-05-10T05:27:19;6.40;;;5.90;;
5125;SDS011;63008;53.112;8.896;2023-05-10T05:29:24;6.50;;;5.83;;
5125;SDS011;63008;53.112;8.896;2023-05-10T05:31:25;7.47;;;6.70;;
5125;SDS011;63008;53.112;8.896;2023-05-10T05:33:26;6.63;;;5.40;;
5125;SDS011;63008;53.112;8.896;2023-05-10T05:35:27;7.27;;;6.57;;
5125;SDS011;63008;53.112;8.896;2023-05-10T05:37:28;6.83;;;6.20;;
5125;SDS011;63008;53.112;8.896;2023-05-10T05:39:29;6.80;;;6.20;;
5125;SDS011;63008;53.112;8.896;2023-05-10T05:41:30;7.87;;;6.40;;
5125;SDS011;63008;53.112;8.896;2023-05-10T05:43:31;7.23;;;6.53;;
5125;SDS011;63008;53.112;8.896;2023-05-10T05:45:32;7.47;;;6.77;;
5125;SDS011;63008;53.112;8.896;2023-05-10T05:47:33;10.07;;;7.00;;
5125;SDS011;63008;53.112;8.896;2023-05-10T05:49:34;9.73;;;7.20;;
5125;SDS011;63008;53.112;8.896;2023-05-10T05:51:35;9.13;;;6.77;;
5125;SDS011;63008;53.112;8.896;2023-05-10T05:53:36;10.63;;;6.50;;
5125;SDS011;63008;53.112;8.896;2023-05-10T05:55:37;11.47;;;6.97;;
5125;SDS011;63008;53.112;8.896;2023-05-10T05:57:38;8.60;;;7.00;;
5125;SDS011;63008;53.112;8.896;2023-05-10T05:59:39;7.80;;;7.00;;
5125;SDS011;63008;53.112;8.896;2023-05-10T06:01:44;8.70;;;7.10;;
5125;SDS011;63008;53.112;8.896;2023-05-10T06:03:45;8.67;;;6.63;;
5125;SDS011;63008;53.112;8.896;2023-05-10T06:05:46;8.07;;;7.20;;
5125;SDS011;63008;53.112;8.896;2023-05-10T06:07:47;7.27;;;6.57;;
5125;SDS011;63008;53.112;8.896;2023-05-10T06:09:48;9.47;;;6.10;;
5125;SDS011;63008;53.112;8.896;2023-05-10T06:11:49;9.87;;;6.80;;
5125;SDS011;63008;53.112;8.896;2023-05-10T06:13:50;7.37;;;6.30;;
5125;SDS011;63008;53.112;8.896;2023-05-10T06:15:50;9.83;;;7.07;;
5125;SDS011;63008;53.112;8.896;2023-05-10T06:17:51;7.73;;;7.00;;
5125;SDS011;63008;53.112;8.896;2023-05-10T06:19:52;8.50;;;6.97;;
5125;SDS011;63008;53.112;8.896;2023-05-10T06:21:53;8.60;;;7.57;;
5125;SDS011;63008;53.112;8.896;2023-05-10T06:23:54;12.43;;;6.93;;
5125;SDS011;63008;53.112;8.896;2023-05-10T06:25:55;13.20;;;7.63;;
5125;SDS011;63008;53.112;8.896;2023-05-10T06:27:56;8.80;;;8.00;;
5125;SDS011;63008;53.112;8.896;2023-05-10T06:29:58;9.57;;;8.57;;
5125;SDS011;63008;53.112;8.896;2023-05-10T06:31:59;10.13;;;9.13;;
5125;SDS011;63008;53.112;8.896;2023-05-10T06:34:00;12.50;;;9.10;;
5125;SDS011;63008;53.112;8.896;2023-05-10T06:36:01;12.30;;;9.10;;
5125;SDS011;63008;53.112;8.896;2023-05-10T06:38:02;11.47;;;10.20;;
5125;SDS011;63008;53.112;8.896;2023-05-10T06:40:03;10.57;;;9.47;;
5125;SDS011;63008;53.112;8.896;2023-05-10T06:42:05;19.10;;;10.87;;
5125;SDS011;63008;53.112;8.896;2023-05-10T06:44:06;13.77;;;10.10;;
5125;SDS011;63008;53.112;8.896;2023-05-10T06:46:07;12.50;;;9.87;;
5125;SDS011;63008;53.112;8.896;2023-05-10T06:48:08;15.43;;;11.60;;
5125;SDS011;63008;53.112;8.896;2023-05-10T06:50:09;13.73;;;10.87;;
5125;SDS011;63008;53.112;8.896;2023-05-10T06:52:12;14.77;;;10.97;;
5125;SDS011;63008;53.112;8.896;2023-05-10T06:54:12;15.50;;;12.10;;
5125;SDS011;63008;53.112;8.896;2023-05-10T06:56:16;15.33;;;11.57;;
5125;SDS011;63008;53.112;8.896;2023-05-10T06:58:17;18.47;;;12.67;;
5125;SDS011;63008;53.112;8.896;2023-05-10T07:00:18;17.77;;;11.33;;
5125;SDS011;63008;53.112;8.896;2023-05-10T07:02:20;17.63;;;12.83;;
5125;SDS011;63008;53.112;8.896;2023-05-10T07:04:21;16.30;;;12.67;;
5125;SDS011;63008;53.112;8.896;2023-05-10T07:06:22;14.37;;;11.97;;
5125;SDS011;63008;53.112;8.896;2023-05-10T07:08:22;15.73;;;12.13;;
5125;SDS011;63008;53.112;8.896;2023-05-10T07:10:23;15.57;;;12.30;;
5125;SDS011;63008;53.112;8.896;2023-05-10T07:12:24;17.87;;;12.87;;
5125;SDS011;63008;53.112;8.896;2023-05-10T07:14:25;19.93;;;13.17;;
5125;SDS011;63008;53.112;8.896;2023-05-10T07:16:26;14.53;;;12.80;;
5125;SDS011;63008;53.112;8.896;2023-05-10T07:18:27;15.83;;;11.90;;
5125;SDS011;63008;53.112;8.896;2023-05-10T07:20:28;15.00;;;12.63;;
5125;SDS011;63008;53.112;8.896;2023-05-10T07:22:29;18.80;;;12.63;;
5125;SDS011;63008;53.112;8.896;2023-05-10T07:24:31;14.67;;;12.83;;
5125;SDS011;63008;53.112;8.896;2023-05-10T07:26:33;14.93;;;12.57;;
5125;SDS011;63008;53.112;8.896;2023-05-10T07:28:34;15.33;;;13.07;;
5125;SDS011;63008;53.112;8.896;2023-05-10T07:30:37;14.50;;;13.00;;
5125;SDS011;63008;53.112;8.896;2023-05-10T07:32:38;19.77;;;12.70;;
5125;SDS011;63008;53.112;8.896;2023-05-10T07:34:42;18.60;;;12.07;;
5125;SDS011;63008;53.112;8.896;2023-05-10T07:36:43;15.33;;;13.77;;
5125;SDS011;63008;53.112;8.896;2023-05-10T07:38:44;18.90;;;14.20;;
5125;SDS011;63008;53.112;8.896;2023-05-10T07:40:45;21.77;;;12.90;;
5125;SDS011;63008;53.112;8.896;2023-05-10T07:42:46;15.17;;;12.17;;
5125;SDS011;63008;53.112;8.896;2023-05-10T07:44:47;17.63;;;14.50;;
5125;SDS011;63008;53.112;8.896;2023-05-10T07:46:48;16.87;;;12.70;;
5125;SDS011;63008;53.112;8.896;2023-05-10T07:48:49;16.00;;;13.17;;
5125;SDS011;63008;53.112;8.896;2023-05-10T07:50:50;14.57;;;12.80;;
5125;SDS011;63008;53.112;8.896;2023-05-10T07:52:51;15.43;;;13.20;;
5125;SDS011;63008;53.112;8.896;2023-05-10T07:54:51;20.53;;;14.60;;
5125;SDS011;63008;53.112;8.896;2023-05-10T07:56:52;16.20;;;13.20;;
5125;SDS011;63008;53.112;8.896;2023-05-10T07:58:54;15.00;;;13.10;;
5125;SDS011;63008;53.112;8.896;2023-05-10T08:00:54;16.73;;;13.33;;
5125;SDS011;63008;53.112;8.896;2023-05-10T08:02:56;14.47;;;12.63;;
5125;SDS011;63008;53.112;8.896;2023-05-10T08:04:57;16.40;;;14.40;;
5125;SDS011;63008;53.112;8.896;2023-05-10T08:06:58;17.00;;;14.33;;
5125;SDS011;63008;53.112;8.896;2023-05-10T08:09:00;14.13;;;12.63;;
5125;SDS011;63008;53.112;8.896;2023-05-10T08:11:01;14.43;;;12.83;;
5125;SDS011;63008;53.112;8.896;2023-05-10T08:13:02;18.23;;;13.07;;
5125;SDS011;63008;53.112;8.896;2023-05-10T08:15:03;14.20;;;12.70;;
5125;SDS011;63008;53.112;8.896;2023-05-10T08:17:04;12.50;;;11.30;;
5125;SDS011;63008;53.112;8.896;2023-05-10T08:19:05;14.47;;;12.73;;
5125;SDS011;63008;53.112;8.896;2023-05-10T08:21:06;12.73;;;11.40;;
5125;SDS011;63008;53.112;8.896;2023-05-10T08:23:07;13.43;;;11.40;;
5125;SDS011;63008;53.112;8.896;2023-05-10T08:25:08;15.10;;;11.83;;
5125;SDS011;63008;53.112;8.896;2023-05-10T08:27:09;11.57;;;10.47;;
5125;SDS011;63008;53.112;8.896;2023-05-10T08:29:10;13.67;;;12.13;;
5125;SDS011;63008;53.112;8.896;2023-05-10T08:31:11;14.20;;;10.27;;
5125;SDS011;63008;53.112;8.896;2023-05-10T08:33:12;11.63;;;10.37;;
5125;SDS011;63008;53.112;8.896;2023-05-10T08:35:15;13.20;;;10.20;;
5125;SDS011;63008;53.112;8.896;2023-05-10T08:37:16;9.77;;;8.87;;
5125;SDS011;63008;53.112;8.896;2023-05-10T08:39:17;8.87;;;8.07;;
5125;SDS011;63008;53.112;8.896;2023-05-10T08:41:21;8.17;;;7.37;;
5125;SDS011;63008;53.112;8.896;2023-05-10T08:43:28;7.43;;;6.73;;
5125;SDS011;63008;53.112;8.896;2023-05-10T08:45:31;6.07;;;5.57;;
5125;SDS011;63008;53.112;8.896;2023-05-10T08:47:35;5.40;;;5.00;;
5125;SDS011;63008;53.112;8.896;2023-05-10T08:49:38;4.80;;;4.40;;
5125;SDS011;63008;53.112;8.896;2023-05-10T08:51:40;5.20;;;4.67;;
5125;SDS011;63008;53.112;8.896;2023-05-10T08:53:43;6.97;;;5.37;;
5125;SDS011;63008;53.112;8.896;2023-05-10T08:55:47;4.60;;;4.30;;
5125;SDS011;63008;53.112;8.896;2023-05-10T08:57:49;5.40;;;4.90;;
5125;SDS011;63008;53.112;8.896;2023-05-10T08:59:50;5.30;;;5.00;;
5125;SDS011;63008;53.112;8.896;2023-05-10T09:01:52;6.20;;;5.70;;
5125;SDS011;63008;53.112;8.896;2023-05-10T09:03:56;5.70;;;5.20;;
5125;SDS011;63008;53.112;8.896;2023-05-10T09:05:57;6.20;;;5.60;;
5125;SDS011;63008;53.112;8.896;2023-05-10T09:08:00;6.70;;;6.20;;
5125;SDS011;63008;53.112;8.896;2023-05-10T09:10:02;5.27;;;4.97;;
5125;SDS011;63008;53.112;8.896;2023-05-10T09:12:04;5.50;;;5.10;;
5125;SDS011;63008;53.112;8.896;2023-05-10T09:14:06;4.80;;;4.50;;
5125;SDS011;63008;53.112;8.896;2023-05-10T09:16:09;5.30;;;4.90;;
5125;SDS011;63008;53.112;8.896;2023-05-10T09:18:11;4.90;;;4.60;;
5125;SDS011;63008;53.112;8.896;2023-05-10T09:20:12;6.03;;;4.90;;
5125;SDS011;63008;53.112;8.896;2023-05-10T09:22:14;4.43;;;4.23;;
5125;SDS011;63008;53.112;8.896;2023-05-10T09:24:15;3.77;;;3.57;;
5125;SDS011;63008;53.112;8.896;2023-05-10T09:26:16;4.97;;;2.47;;
5125;SDS011;63008;53.112;8.896;2023-05-10T09:28:17;2.30;;;2.20;;
5125;SDS011;63008;53.112;8.896;2023-05-10T09:30:25;2.50;;;2.40;;
5125;SDS011;63008;53.112;8.896;2023-05-10T09:32:37;2.10;;;2.00;;
5125;SDS011;63008;53.112;8.896;2023-05-10T09:34:42;1.87;;;1.77;;
5125;SDS011;63008;53.112;8.896;2023-05-10T09:36:56;1.50;;;1.40;;
5125;SDS011;63008;53.112;8.896;2023-05-10T09:39:04;2.00;;;1.90;;
5125;SDS011;63008;53.112;8.896;2023-05-10T09:41:14;2.63;;;1.57;;
5125;SDS011;63008;53.112;8.896;2023-05-10T09:43:17;3.67;;;2.10;;
5125;SDS011;63008;53.112;8.896;2023-05-10T09:45:18;2.07;;;1.90;;
5125;SDS011;63008;53.112;8.896;2023-05-10T09:47:19;2.03;;;1.93;;
5125;SDS011;63008;53.112;8.896;2023-05-10T09:49:20;2.50;;;2.40;;
5125;SDS011;63008;53.112;8.896;2023-05-10T09:51:23;2.30;;;2.10;;
5125;SDS011;63008;53.112;8.896;2023-05-10T09:53:25;4.17;;;2.90;;
5125;SDS011;63008;53.112;8.896;2023-05-10T09:55:38;2.97;;;2.77;;
5125;SDS011;63008;53.112;8.896;2023-05-10T09:57:39;3.07;;;2.97;;
5125;SDS011;63008;53.112;8.896;2023-05-10T09:59:42;3.37;;;3.20;;
5125;SDS011;63008;53.112;8.896;2023-05-10T10:01:49;3.50;;;3.30;;
5125;SDS011;63008;53.112;8.896;2023-05-10T10:03:50;7.00;;;4.10;;
5125;SDS011;63008;53.112;8.896;2023-05-10T10:05:51;8.80;;;3.70;;
5125;SDS011;63008;53.112;8.896;2023-05-10T10:07:53;4.57;;;4.27;;
5125;SDS011;63008;53.112;8.896;2023-05-10T10:09:55;5.47;;;3.80;;
5125;SDS011;63008;53.112;8.896;2023-05-10T10:11:56;4.87;;;4.30;;
5125;SDS011;63008;53.112;8.896;2023-05-10T10:13:57;4.90;;;4.40;;
5125;SDS011;63008;53.112;8.896;2023-05-10T10:15:58;5.70;;;4.83;;
5125;SDS011;63008;53.112;8.896;2023-05-10T10:18:00;4.30;;;4.10;;
5125;SDS011;63008;53.112;8.896;2023-05-10T10:20:02;4.27;;;4.07;;
5125;SDS011;63008;53.112;8.896;2023-05-10T10:22:03;4.50;;;4.30;;
5125;SDS011;63008;53.112;8.896;2023-05-10T10:24:04;7.23;;;5.10;;
5125;SDS011;63008;53.112;8.896;2023-05-10T10:26:06;6.10;;;5.70;;
5125;SDS011;63008;53.112;8.896;2023-05-10T10:28:21;6.20;;;5.63;;
5125;SDS011;63008;53.112;8.896;2023-05-10T10:30:43;5.70;;;5.30;;
5125;SDS011;63008;53.112;8.896;2023-05-10T10:33:03;3.70;;;3.50;;
5125;SDS011;63008;53.112;8.896;2023-05-10T10:35:14;3.93;;;3.63;;
5125;SDS011;63008;53.112;8.896;2023-05-10T10:37:17;3.70;;;3.03;;
5125;SDS011;63008;53.112;8.896;2023-05-10T10:39:18;2.80;;;2.70;;
5125;SDS011;63008;53.112;8.896;2023-05-10T10:41:31;3.50;;;3.30;;
5125;SDS011;63008;53.112;8.896;2023-05-10T10:43:36;3.00;;;2.80;;
5125;SDS011;63008;53.112;8.896;2023-05-10T10:45:38;2.67;;;2.47;;
5125;SDS011;63008;53.112;8.896;2023-05-10T10:47:40;4.67;;;2.33;;
5125;SDS011;63008;53.112;8.896;2023-05-10T10:52:12;2.60;;;2.40;;
5125;SDS011;63008;53.112;8.896;2023-05-10T10:54:27;3.10;;;2.90;;
5125;SDS011;63008;53.112;8.896;2023-05-10T10:56:28;2.93;;;2.73;;
5125;SDS011;63008;53.112;8.896;2023-05-10T10:58:30;2.93;;;2.50;;
5125;SDS011;63008;53.112;8.896;2023-05-10T11:00:33;2.93;;;2.70;;
5125;SDS011;63008;53.112;8.896;2023-05-10T11:02:43;2.70;;;2.23;;
5125;SDS011;63008;53.112;8.896;2023-05-10T11:04:46;3.03;;;2.83;;
5125;SDS011;63008;53.112;8.896;2023-05-10T11:06:47;6.60;;;3.17;;
5125;SDS011;63008;53.112;8.896;2023-05-10T11:08:48;2.83;;;2.73;;
5125;SDS011;63008;53.112;8.896;2023-05-10T11:10:50;2.67;;;2.57;;
5125;SDS011;63008;53.112;8.896;2023-05-10T11:13:04;2.70;;;2.60;;
5125;SDS011;63008;53.112;8.896;2023-05-10T11:15:08;2.80;;;2.60;;
5125;SDS011;63008;53.112;8.896;2023-05-10T11:17:23;3.20;;;3.00;;
5125;SDS011;63008;53.112;8.896;2023-05-10T11:19:27;3.83;;;3.53;;
5125;SDS011;63008;53.112;8.896;2023-05-10T11:21:29;3.27;;;3.07;;
5125;SDS011;63008;53.112;8.896;2023-05-10T11:23:32;3.53;;;2.77;;
5125;SDS011;63008;53.112;8.896;2023-05-10T11:25:33;2.80;;;2.60;;
5125;SDS011;63008;53.112;8.896;2023-05-10T11:27:36;4.80;;;2.40;;
5125;SDS011;63008;53.112;8.896;2023-05-10T11:29:38;1.90;;;1.80;;
5125;SDS011;63008;53.112;8.896;2023-05-10T11:31:42;1.80;;;1.70;;
5125;SDS011;63008;53.112;8.896;2023-05-10T11:33:45;3.73;;;2.00;;
5125;SDS011;63008;53.112;8.896;2023-05-10T11:35:46;2.37;;;2.20;;
5125;SDS011;63008;53.112;8.896;2023-05-10T11:37:47;1.77;;;1.70;;
5125;SDS011;63008;53.112;8.896;2023-05-10T11:39:48;5.83;;;2.43;;
5125;SDS011;63008;53.112;8.896;2023-05-10T11:41:49;2.90;;;2.73;;
5125;SDS011;63008;53.112;8.896;2023-05-10T11:43:51;2.53;;;2.43;;
5125;SDS011;63008;53.112;8.896;2023-05-10T11:45:53;3.00;;;2.73;;
5125;SDS011;63008;53.112;8.896;2023-05-10T11:47:55;3.67;;;3.57;;
5125;SDS011;63008;53.112;8.896;2023-05-10T11:49:58;3.30;;;3.20;;
5125;SDS011;63008;53.112;8.896;2023-05-10T11:52:05;3.40;;;3.10;;
5125;SDS011;63008;53.112;8.896;2023-05-10T11:54:09;3.10;;;3.00;;
5125;SDS011;63008;53.112;8.896;2023-05-10T11:56:11;3.77;;;3.50;;
5125;SDS011;63008;53.112;8.896;2023-05-10T11:58:12;3.20;;;3.10;;
5125;SDS011;63008;53.112;8.896;2023-05-10T12:00:13;5.70;;;3.10;;
5125;SDS011;63008;53.112;8.896;2023-05-10T12:02:15;2.80;;;2.70;;
5125;SDS011;63008;53.112;8.896;2023-05-10T12:04:16;6.67;;;3.00;;
5125;SDS011;63008;53.112;8.896;2023-05-10T12:06:17;3.23;;;3.13;;
5125;SDS011;63008;53.112;8.896;2023-05-10T12:08:20;3.13;;;2.83;;
5125;SDS011;63008;53.112;8.896;2023-05-10T12:10:26;4.03;;;3.83;;
5125;SDS011;63008;53.112;8.896;2023-05-10T12:12:28;2.73;;;2.50;;
5125;SDS011;63008;53.112;8.896;2023-05-10T12:14:36;2.00;;;1.90;;
5125;SDS011;63008;53.112;8.896;2023-05-10T12:16:40;1.93;;;1.83;;
5125;SDS011;63008;53.112;8.896;2023-05-10T12:18:44;1.80;;;1.70;;
5125;SDS011;63008;53.112;8.896;2023-05-10T12:20:45;1.40;;;1.30;;
5125;SDS011;63008;53.112;8.896;2023-05-10T12:22:50;3.73;;;1.30;;
5125;SDS011;63008;53.112;8.896;2023-05-10T12:24:52;1.70;;;1.60;;
5125;SDS011;63008;53.112;8.896;2023-05-10T12:26:53;1.10;;;1.10;;
5125;SDS011;63008;53.112;8.896;2023-05-10T12:28:54;1.20;;;1.20;;
5125;SDS011;63008;53.112;8.896;2023-05-10T12:31:11;2.13;;;0.97;;
5125;SDS011;63008;53.112;8.896;2023-05-10T12:33:13;2.40;;;0.90;;
5125;SDS011;63008;53.112;8.896;2023-05-10T12:35:17;1.20;;;1.20;;
5125;SDS011;63008;53.112;8.896;2023-05-10T12:37:23;1.33;;;0.80;;
5125;SDS011;63008;53.112;8.896;2023-05-10T12:39:43;1.00;;;1.00;;
5125;SDS011;63008;53.112;8.896;2023-05-10T12:41:45;0.80;;;0.80;;
5125;SDS011;63008;53.112;8.896;2023-05-10T12:43:46;2.40;;;0.80;;